Flight Track Log - Related Links

Times and Time Zones

All times are in EDT time to prevent confusion due to time zone crossing. See the KAL316 flight status page for this flight to view local times or setup timezone preferences in your user account.

Time Position Orientation Groundspeed Altitude Reporting Facility
EDT Latitude Longitude Course Direction KTS MPH feet Rate Location/Type
Sun 03:37:00 PM 31.2200 121.8445 30° Northeast  Level Estimated
Sun 03:38:00 PM 31.2972 121.8968 30° Northeast  Level Estimated
Sun 03:39:00 PM 31.3744 121.9492 30° Northeast  Level Estimated
Sun 03:40:00 PM 31.4515 122.0016 30° Northeast  Level Estimated
Sun 03:41:00 PM 31.5286 122.0541 30° Northeast  Level Estimated
Sun 03:42:00 PM 31.6096 122.1094 30° Northeast  Level Estimated
Sun 03:43:00 PM 31.6906 122.1647 30° Northeast  Level Estimated
Sun 03:44:00 PM 31.7716 122.2202 30° Northeast  Level Estimated
Sun 03:45:00 PM 31.8525 122.2758 30° Northeast  Level Estimated
Sun 03:46:00 PM 31.9334 122.3314 30° Northeast  Level Estimated
Sun 03:47:00 PM 32.0143 122.3872 30° Northeast  Level Estimated
Sun 03:48:00 PM 32.0952 122.4430 30° Northeast  Level Estimated
Sun 03:49:00 PM 32.1760 122.4990 30° Northeast  Level Estimated
Sun 03:50:00 PM 32.2568 122.5551 30° Northeast  Level Estimated
Sun 03:51:00 PM 32.3376 122.6112 30° Northeast  Level Estimated
Sun 03:52:00 PM 32.4184 122.6675 30° Northeast  Level Estimated
Sun 03:53:00 PM 32.4991 122.7238 30° Northeast  Level Estimated
Sun 03:54:00 PM 32.5798 122.7803 31° Northeast  Level Estimated
Sun 03:55:00 PM 32.6605 122.8369 31° Northeast  Level Estimated
Sun 03:56:00 PM 32.7412 122.8935 31° Northeast  Level Estimated
Sun 03:57:00 PM 32.8218 122.9503 31° Northeast  Level Estimated
Sun 03:58:00 PM 32.9024 123.0071 31° Northeast  Level Estimated
Sun 03:59:00 PM 32.9830 123.0641 31° Northeast  Level Estimated
Sun 04:00:00 PM 33.0636 123.1212 31° Northeast  Level Estimated
Sun 04:01:00 PM 33.1441 123.1784 31° Northeast  Level Estimated
Sun 04:02:00 PM 33.2246 123.2356 31° Northeast  Level Estimated
Sun 04:03:00 PM 33.3051 123.2930 31° Northeast  Level Estimated
Sun 04:04:00 PM 33.3855 123.3505 31° Northeast  Level Estimated
Sun 04:05:00 PM 33.4660 123.4081 31° Northeast  Level Estimated
Sun 04:06:00 PM 33.5464 123.4659 31° Northeast  Level Estimated
Sun 04:07:00 PM 33.6267 123.5237 31° Northeast  Level Estimated
Sun 04:08:00 PM 33.7071 123.5816 31° Northeast  Level Estimated
Sun 04:09:00 PM 33.7874 123.6396 31° Northeast  Level Estimated
Sun 04:10:00 PM 33.8677 123.6978 31° Northeast  Level Estimated
Sun 04:11:00 PM 33.9480 123.7560 31° Northeast  Level Estimated
Sun 04:12:00 PM 34.0282 123.8144 31° Northeast  Level Estimated
Sun 04:13:00 PM 34.1084 123.8728 31° Northeast  Level Estimated
Sun 04:14:00 PM 34.1886 123.9314 31° Northeast  Level Estimated
Sun 04:15:00 PM 34.2687 123.9901 31° Northeast  Level Estimated
Sun 04:16:00 PM 34.3489 124.0489 31° Northeast  Level Estimated
Sun 04:17:00 PM 34.4290 124.1079 31° Northeast  Level Estimated
Sun 04:18:00 PM 34.5090 124.1669 31° Northeast  Level Estimated
Sun 04:19:00 PM 34.5891 124.2260 31° Northeast  Level Estimated
Sun 04:20:00 PM 34.6691 124.2853 31° Northeast  Level Estimated
Sun 04:21:00 PM 34.7491 124.3447 31° Northeast  Level Estimated
Sun 04:22:00 PM 34.8290 124.4042 31° Northeast  Level Estimated
Sun 04:23:00 PM 34.9090 124.4638 31° Northeast  Level Estimated
Sun 04:24:00 PM 34.9899 124.5242 31° Northeast  Level Estimated
Sun 04:25:00 PM 35.0708 124.5849 32° Northeast  Level Estimated
Sun 04:26:00 PM 35.1516 124.6456 32° Northeast  Level Estimated
Sun 04:27:00 PM 35.2325 124.7064 32° Northeast  Level Estimated
Sun 04:28:00 PM 35.3133 124.7674 32° Northeast  Level Estimated
Sun 04:29:00 PM 35.3940 124.8285 32° Northeast  Level Estimated
Sun 04:30:00 PM 35.4748 124.8897 32° Northeast  Level Estimated
Sun 04:31:00 PM 35.5555 124.9510 32° Northeast  Level Estimated
Sun 04:32:00 PM 35.6362 125.0125 32° Northeast  Level Estimated
Sun 04:33:00 PM 35.7168 125.0741 32° Northeast  Level Estimated
Sun 04:34:00 PM 35.7974 125.1358 32° Northeast  Level Estimated
Sun 04:35:00 PM 35.8780 125.1976 32° Northeast  Level Estimated
Sun 04:36:00 PM 35.9585 125.2596 32° Northeast  Level Estimated
Sun 04:37:00 PM 36.0391 125.3217 32° Northeast  Level Estimated
Sun 04:38:00 PM 36.1195 125.3839 32° Northeast  Level Estimated
Sun 04:39:00 PM 36.2000 125.4462 32° Northeast  Level Estimated
Sun 04:40:00 PM 36.2804 125.5087 32° Northeast  Level Estimated
Sun 04:41:00 PM 36.3608 125.5713 32° Northeast  Level Estimated
Sun 04:42:00 PM 36.4412 125.6340 32° Northeast  Level Estimated
Sun 04:43:00 PM 36.5215 125.6969 32° Northeast  Level Estimated
Sun 04:44:00 PM 36.6018 125.7599 32° Northeast  Level Estimated
Sun 04:45:00 PM 36.6820 125.8230 32° Northeast  Level Estimated
Sun 04:46:00 PM 36.7623 125.8863 32° Northeast  Level Estimated
Sun 04:47:00 PM 36.8425 125.9496 32° Northeast  Level Estimated
Sun 04:48:00 PM 36.9226 126.0132 32° Northeast  Level Estimated
Sun 04:49:00 PM 37.0027 126.0768 32° Northeast  Level Estimated
Sun 04:50:00 PM 37.0828 126.1406 32° Northeast  Level Estimated
Sun 04:51:00 PM 37.1629 126.2045 32° Northeast  Level Estimated
Sun 04:52:00 PM 37.2429 126.2686 33° Northeast  Level Estimated
Sun 04:53:00 PM 37.3229 126.3328 33° Northeast  Level Estimated
Sun 04:54:00 PM 37.4028 126.3971 33° Northeast  Level Estimated
Sun 04:55:00 PM 37.4691 126.4505 33° Northeast  Level Estimated
Sun 04:56:00 PM 37.4691 126.4505 North  Level Estimated
Sun 04:57:00 PM 37.4691 126.4505 North  Level Estimated
Sun 04:58:00 PM 37.4691 126.4505 North  Level Estimated
Sun 04:59:00 PM 37.4691 126.4505 North  Level Estimated
Sun 05:00:00 PM 37.4691 126.4505 North  Level Estimated
Sun 05:01:00 PM 37.4691 126.4505 North  Level Estimated
Sun 05:02:00 PM 37.4691 126.4505 North  Level Estimated
Sun 05:03:00 PM 37.4691 126.4505 North  Level Estimated
Sun 05:04:00 PM 37.4691 126.4505 North  Level Estimated
Sun 05:05:00 PM 37.4691 126.4505 North  Level Estimated
Sun 05:06:00 PM 37.4691 126.4505 North  Level Estimated
Sun 05:07:00 PM 37.4691 126.4505 North  Level Estimated
Sun 05:08:00 PM 37.4691 126.4505 North  Level Estimated
Sun 05:09:00 PM 37.4691 126.4505 North  Level Estimated
Sun 05:10:00 PM 37.4691 126.4505 North  Level Estimated
Sun 05:11:00 PM 37.4691 126.4505 North  Level Estimated

Login

Don't have an account? Register now (free) for customized features, flight alerts, and more!